Time;durP1;ratioP1;P1;durP2;ratioP2;P2;SDS_P1;SDS_P2;PMS_P1;PMS_P2;Temp;Humidity;BMP_temperature;BMP_pressure;BME280_temperature;BME280_humidity;BME280_pressure;Samples;Min_cycle;Max_cycle;Signal;HPM_P1;HPM_P2
2022/01/21 00:01:54;;;;;;;3.40;1.30;;;1.20;1.00;;;;;;5066619;28;20534;-58
2022/01/21 00:04:20;;;;;;;3.67;1.47;;;1.10;1.00;;;;;;5067019;28;20438;-58
2022/01/21 00:06:46;;;;;;;3.27;1.10;;;1.10;1.00;;;;;;5052903;28;20233;-58
2022/01/21 00:09:11;;;;;;;5.93;0.90;;;1.10;1.00;;;;;;5068933;28;20183;-59
2022/01/21 00:11:39;;;;;;;5.03;1.23;;;1.10;1.00;;;;;;5053174;28;20202;-59
2022/01/21 00:14:06;;;;;;;1.73;0.90;;;1.00;1.00;;;;;;5069608;28;20187;-59
2022/01/21 00:16:32;;;;;;;10.13;1.50;;;1.00;1.00;;;;;;5068504;28;20955;-59
2022/01/21 00:19:12;;;;;;;3.17;1.20;;;0.90;1.00;;;;;;5070943;28;20951;-58
2022/01/21 00:32:34;;;;;;;4.40;1.37;;;0.80;1.00;;;;;;5067161;28;20496;-56
2022/01/21 00:34:59;;;;;;;2.00;0.80;;;0.90;1.00;;;;;;5069094;28;20477;-58
2022/01/21 00:37:25;;;;;;;1.87;1.00;;;0.80;1.00;;;;;;5069412;28;20876;-59
2022/01/21 00:39:55;;;;;;;4.93;1.40;;;0.80;1.00;;;;;;5070389;28;20462;-59
2022/01/21 00:44:47;;;;;;;4.17;1.63;;;0.80;1.00;;;;;;5064488;28;20465;-58
2022/01/21 00:47:14;;;;;;;2.17;0.63;;;0.70;1.00;;;;;;5074529;28;20472;-58
2022/01/21 00:49:39;;;;;;;7.50;2.03;;;0.90;1.00;;;;;;5065960;28;20449;-59
2022/01/21 00:52:05;;;;;;;7.87;1.40;;;1.00;1.00;;;;;;5067819;28;20449;-59
2022/01/21 00:54:31;;;;;;;7.67;1.77;;;1.00;1.00;;;;;;5066708;28;20274;-58
2022/01/21 00:56:56;;;;;;;7.43;0.90;;;0.90;1.00;;;;;;5071741;28;20195;-58
2022/01/21 00:59:22;;;;;;;6.57;1.37;;;1.00;1.00;;;;;;5067710;28;20188;-59
2022/01/21 01:01:48;;;;;;;7.10;1.20;;;0.90;1.00;;;;;;5066207;28;21390;-59
2022/01/21 01:04:14;;;;;;;2.40;1.27;;;;;;;;;;5066191;28;20275;-59
2022/01/21 01:06:40;;;;;;;8.57;1.50;;;0.80;1.00;;;;;;5070304;28;20227;-58
2022/01/21 01:09:05;;;;;;;1.87;0.90;;;0.80;1.00;;;;;;5070460;28;20858;-59
2022/01/21 01:22:12;;;;;;;6.83;1.37;;;0.80;1.00;;;;;;5079227;28;20448;-59
2022/01/21 01:30:25;;;;;;;11.63;1.83;;;0.90;1.00;;;;;;4985901;28;20500;-58
2022/01/21 01:32:55;;;;;;;2.47;1.57;;;0.90;1.00;;;;;;5051378;28;20451;-59
2022/01/21 01:35:21;;;;;;;10.33;1.07;;;1.00;1.00;;;;;;5061426;28;20472;-58
2022/01/21 01:50:58;;;;;;;5.90;1.80;;;0.70;1.00;;;;;;5072069;28;20429;-58
2022/01/21 01:53:52;;;;;;;1.47;0.60;;;0.80;1.00;;;;;;5071229;28;20861;-59
2022/01/21 01:56:24;;;;;;;1.93;0.60;;;0.80;1.00;;;;;;5071925;28;20442;-58
2022/01/21 01:58:49;;;;;;;5.70;1.23;;;0.80;1.00;;;;;;5070590;28;20544;-58
2022/01/21 02:01:15;;;;;;;3.10;1.17;;;;;;;;;;5069099;28;20528;-59
2022/01/21 02:03:41;;;;;;;5.63;0.90;;;0.70;1.00;;;;;;5069220;28;20187;-58
2022/01/21 02:06:07;;;;;;;6.43;0.80;;;0.70;1.00;;;;;;5069826;28;20441;-58
2022/01/21 02:08:33;;;;;;;1.33;0.77;;;0.70;1.00;;;;;;5069399;28;20245;-59
2022/01/21 02:10:58;;;;;;;1.10;0.70;;;0.70;1.00;;;;;;5068284;28;20199;-58
2022/01/21 02:13:31;;;;;;;1.80;0.83;;;0.60;1.00;;;;;;5070380;28;20441;-59
2022/01/21 02:16:05;;;;;;;3.17;1.10;;;0.70;1.00;;;;;;5068937;28;20183;-59
2022/01/21 02:24:01;;;;;;;1.33;0.97;;;0.70;1.00;;;;;;5070664;28;20456;-58
2022/01/21 02:26:27;;;;;;;4.97;1.17;;;2.10;1.00;;;;;;5067310;28;20572;-58
2022/01/21 02:28:54;;;;;;;2.43;0.90;;;0.80;1.00;;;;;;5072831;28;20576;-59
2022/01/21 02:31:20;;;;;;;1.60;0.73;;;1.00;1.00;;;;;;5054573;28;20482;-58
2022/01/21 02:33:46;;;;;;;3.00;1.50;;;0.90;1.00;;;;;;5073167;28;20524;-58
2022/01/21 02:36:12;;;;;;;4.17;1.33;;;0.90;1.00;;;;;;5070793;28;20591;-59
2022/01/21 02:38:37;;;;;;;4.97;1.23;;;0.90;1.00;;;;;;5071964;28;20202;-58
2022/01/21 02:41:03;;;;;;;3.93;0.80;;;;;;;;;;5055842;28;20191;-58
2022/01/21 02:43:29;;;;;;;8.73;1.80;;;;;;;;;;5065929;28;20179;-58
2022/01/21 02:45:55;;;;;;;3.87;1.10;;;0.90;1.00;;;;;;5079530;28;20630;-59
2022/01/21 02:48:22;;;;;;;3.40;1.37;;;0.80;1.00;;;;;;5057354;28;20590;-58
2022/01/21 02:50:47;;;;;;;7.43;0.80;;;0.80;1.00;;;;;;5071573;28;20179;-58
2022/01/21 02:55:59;;;;;;;5.63;1.07;;;0.80;1.00;;;;;;5027368;28;20223;-58
2022/01/21 02:58:25;;;;;;;7.43;1.97;;;0.80;1.00;;;;;;5069357;28;20445;-59
2022/01/21 03:00:52;;;;;;;4.43;1.13;;;0.80;1.00;;;;;;5071115;28;20187;-59
2022/01/21 03:03:17;;;;;;;3.60;1.80;;;0.80;1.00;;;;;;5065070;28;20463;-59
2022/01/21 03:05:43;;;;;;;0.90;0.77;;;0.80;1.00;;;;;;5070272;28;20441;-59
2022/01/21 03:08:09;;;;;;;2.17;1.20;;;;;;;;;;5067613;28;20207;-59
2022/01/21 03:10:34;;;;;;;8.10;1.60;;;0.70;1.00;;;;;;5067435;28;20183;-60
2022/01/21 03:13:00;;;;;;;3.47;1.00;;;;;;;;;;5068688;28;20455;-59
2022/01/21 03:15:26;;;;;;;3.30;0.87;;;0.60;1.00;;;;;;5067965;28;20625;-59
2022/01/21 03:17:51;;;;;;;3.17;0.80;;;0.60;1.00;;;;;;5071873;28;20520;-60
2022/01/21 03:20:17;;;;;;;3.37;1.33;;;0.50;1.00;;;;;;5072508;28;20191;-59
2022/01/21 03:22:42;;;;;;;5.97;1.30;;;0.50;1.00;;;;;;5069436;28;20195;-59
2022/01/21 03:25:09;;;;;;;4.73;1.70;;;0.50;1.00;;;;;;5069683;28;20232;-60
2022/01/21 03:27:35;;;;;;;5.47;1.87;;;0.50;1.00;;;;;;5071335;28;20661;-60
2022/01/21 03:30:03;;;;;;;5.60;1.20;;;0.40;1.00;;;;;;5067229;28;20496;-60
2022/01/21 03:32:28;;;;;;;4.90;1.00;;;0.40;1.00;;;;;;5068706;28;20286;-59
2022/01/21 03:34:54;;;;;;;2.00;0.83;;;;;;;;;;5068562;28;20540;-59
2022/01/21 03:37:20;;;;;;;2.50;0.90;;;0.50;1.00;;;;;;5067313;28;20190;-59
2022/01/21 03:39:46;;;;;;;3.47;1.00;;;0.30;1.00;;;;;;5066991;28;20452;-60
2022/01/21 03:42:12;;;;;;;4.33;1.00;;;;;;;;;;5069084;28;20550;-59
2022/01/21 03:44:38;;;;;;;4.27;1.30;;;0.40;1.00;;;;;;5069374;28;20526;-59
2022/01/21 03:47:04;;;;;;;5.87;1.20;;;0.20;1.00;;;;;;5067217;28;20522;-60
2022/01/21 03:49:36;;;;;;;4.10;1.87;;;0.20;1.00;;;;;;5067510;28;20851;-59
2022/01/21 03:52:02;;;;;;;4.30;1.90;;;0.20;1.00;;;;;;5068543;28;20495;-60
2022/01/21 03:54:28;;;;;;;2.77;0.73;;;0.30;1.00;;;;;;5065666;28;20783;-59
2022/01/21 03:56:54;;;;;;;4.50;1.97;;;0.30;1.00;;;;;;5063326;28;20441;-59
2022/01/21 03:59:19;;;;;;;2.33;1.07;;;0.30;1.00;;;;;;5067429;28;20694;-59
2022/01/21 04:01:45;;;;;;;2.37;0.93;;;0.30;1.00;;;;;;5069354;28;20656;-59
2022/01/21 04:04:10;;;;;;;3.90;1.00;;;0.30;1.00;;;;;;5080763;28;22517;-58
2022/01/21 04:06:36;;;;;;;8.47;1.47;;;0.30;1.00;;;;;;5077396;28;20207;-59
2022/01/21 04:09:02;;;;;;;3.63;1.30;;;0.30;1.00;;;;;;5065812;28;20194;-59
2022/01/21 04:11:27;;;;;;;1.90;1.53;;;0.30;1.00;;;;;;5064961;28;20285;-59
2022/01/21 04:13:55;;;;;;;3.77;0.83;;;0.40;1.00;;;;;;5071400;28;20543;-59
2022/01/21 04:16:20;;;;;;;7.80;1.17;;;0.30;1.00;;;;;;5069810;28;20575;-59
2022/01/21 04:18:46;;;;;;;3.80;1.00;;;0.30;1.00;;;;;;5066654;28;20457;-58
2022/01/21 04:21:11;;;;;;;1.00;0.90;;;0.40;1.00;;;;;;5073997;28;20283;-59
2022/01/21 04:23:37;;;;;;;3.53;1.40;;;0.40;1.00;;;;;;5068961;28;20211;-59
2022/01/21 04:26:03;;;;;;;3.17;1.00;;;0.40;1.00;;;;;;5068583;28;20227;-59
2022/01/21 04:28:29;;;;;;;2.60;1.67;;;0.40;1.00;;;;;;5069420;28;20285;-58
2022/01/21 04:30:55;;;;;;;3.57;1.07;;;0.40;1.00;;;;;;5069323;28;20445;-59
2022/01/21 04:33:21;;;;;;;3.93;1.40;;;0.40;1.00;;;;;;5067492;28;20445;-58
2022/01/21 04:35:47;;;;;;;3.30;1.10;;;0.40;1.00;;;;;;5068392;28;20453;-59
2022/01/21 04:38:15;;;;;;;7.60;1.53;;;0.40;1.00;;;;;;5068041;28;20195;-59
2022/01/21 04:40:49;;;;;;;3.53;1.77;;;0.30;1.00;;;;;;5070546;28;20202;-59
2022/01/21 04:48:44;;;;;;;3.23;1.00;;;0.30;1.00;;;;;;5070199;28;20510;-59
2022/01/21 04:51:19;;;;;;;1.80;0.90;;;0.20;1.00;;;;;;5072618;28;20434;-59
2022/01/21 04:53:47;;;;;;;7.60;1.37;;;0.10;1.00;;;;;;5073623;28;20448;-59
2022/01/21 04:56:14;;;;;;;1.20;0.80;;;0.00;1.00;;;;;;5072841;28;20434;-59
2022/01/21 04:58:40;;;;;;;6.20;2.07;;;0.10;1.00;;;;;;5076964;28;20536;-59
2022/01/21 05:01:06;;;;;;;2.83;1.00;;;0.20;1.00;;;;;;5072706;28;20445;-59
2022/01/21 05:03:35;;;;;;;4.10;1.50;;;0.20;1.00;;;;;;5074118;28;20483;-59
2022/01/21 05:06:01;;;;;;;6.70;1.37;;;0.20;1.00;;;;;;5071306;28;20451;-59
2022/01/21 05:08:40;;;;;;;5.00;1.27;;;0.10;1.00;;;;;;5072711;28;20523;-57
2022/01/21 05:11:06;;;;;;;5.07;1.40;;;0.10;1.00;;;;;;5073723;28;20445;-57
2022/01/21 05:13:39;;;;;;;7.13;1.80;;;0.00;1.00;;;;;;5073824;28;20456;-56
2022/01/21 05:16:29;;;;;;;0.90;0.77;;;0.00;1.00;;;;;;5075629;28;20532;-57
2022/01/21 05:18:56;;;;;;;1.37;0.90;;;0.00;1.00;;;;;;5071876;28;20524;-58
2022/01/21 05:21:22;;;;;;;4.63;1.03;;;0.00;1.00;;;;;;5076900;28;20449;-59
2022/01/21 05:23:48;;;;;;;8.10;1.07;;;0.00;1.00;;;;;;5075699;28;20449;-59
2022/01/21 05:26:13;;;;;;;4.90;1.63;;;0.00;1.00;;;;;;5071156;28;20959;-59
2022/01/21 05:28:39;;;;;;;5.07;1.77;;;0.00;1.00;;;;;;5069132;28;20183;-59
2022/01/21 05:31:05;;;;;;;3.00;1.53;;;-0.10;1.00;;;;;;5071841;28;20209;-59
2022/01/21 05:33:30;;;;;;;1.83;1.00;;;-0.10;1.00;;;;;;5071305;28;20371;-58
2022/01/21 05:35:56;;;;;;;1.83;1.20;;;;;;;;;;5072726;28;20187;-58
2022/01/21 05:38:22;;;;;;;2.20;1.00;;;0.00;1.00;;;;;;5074732;28;20271;-59
2022/01/21 05:40:47;;;;;;;3.23;1.70;;;-0.10;1.00;;;;;;5074513;28;20854;-58
2022/01/21 05:43:13;;;;;;;6.83;1.73;;;-0.10;1.00;;;;;;5072319;28;20270;-58
2022/01/21 05:48:24;;;;;;;2.43;1.27;;;-0.10;1.00;;;;;;5072966;28;20459;-59
2022/01/21 05:50:50;;;;;;;7.47;1.70;;;0.00;1.00;;;;;;5072933;28;20953;-59
2022/01/21 05:53:15;;;;;;;4.37;0.97;;;0.00;1.00;;;;;;5073476;28;20711;-59
2022/01/21 05:55:42;;;;;;;5.93;1.80;;;-0.10;1.00;;;;;;5074869;28;20222;-59
2022/01/21 05:58:10;;;;;;;7.07;1.20;;;-0.10;1.00;;;;;;5074508;28;20636;-59
2022/01/21 06:00:36;;;;;;;2.40;1.23;;;-0.10;1.00;;;;;;5073561;28;20454;-59
2022/01/21 06:03:05;;;;;;;6.50;1.50;;;-0.10;1.00;;;;;;5077436;28;20521;-60
2022/01/21 06:05:33;;;;;;;3.67;1.87;;;-0.10;1.00;;;;;;5075002;28;20465;-59
2022/01/21 06:08:00;;;;;;;5.40;2.90;;;-0.10;1.00;;;;;;5076138;28;20527;-59
2022/01/21 06:10:26;;;;;;;5.20;1.67;;;-0.10;1.00;;;;;;5075143;28;20438;-60
2022/01/21 06:12:52;;;;;;;2.60;1.23;;;;;;;;;;5073508;28;20787;-59
2022/01/21 06:15:18;;;;;;;4.33;1.50;;;-0.10;1.00;;;;;;5074823;28;20200;-58
2022/01/21 06:17:43;;;;;;;5.07;1.97;;;0.00;1.00;;;;;;5070677;28;20441;-58
2022/01/21 06:20:10;;;;;;;1.63;1.53;;;-0.10;1.00;;;;;;5072427;28;20195;-59
2022/01/21 06:22:35;;;;;;;4.67;1.30;;;-0.10;1.00;;;;;;5071376;28;20551;-59
2022/01/21 06:25:01;;;;;;;2.67;1.53;;;-0.10;1.00;;;;;;5072109;28;20473;-58
2022/01/21 06:27:27;;;;;;;7.30;1.70;;;3.30;1.00;;;;;;5072557;28;20656;-58
2022/01/21 06:29:54;;;;;;;2.77;1.83;;;-0.20;1.00;;;;;;5085725;28;20290;-59
2022/01/21 06:32:20;;;;;;;5.37;1.67;;;-0.10;1.00;;;;;;5070721;28;20429;-59
2022/01/21 06:34:45;;;;;;;4.40;1.17;;;-0.10;1.00;;;;;;5070905;28;20941;-59
2022/01/21 06:37:11;;;;;;;5.43;1.90;;;-0.10;1.00;;;;;;5070433;28;20380;-58
2022/01/21 06:39:36;;;;;;;1.20;1.00;;;-0.10;1.00;;;;;;5070539;28;20186;-58
2022/01/21 06:42:02;;;;;;;2.00;0.80;;;0.00;1.00;;;;;;5071024;28;20187;-59
2022/01/21 06:44:28;;;;;;;2.90;1.20;;;0.10;1.00;;;;;;5072092;28;20201;-59
2022/01/21 06:46:53;;;;;;;5.23;1.80;;;0.20;1.00;;;;;;5090669;28;20464;-59
2022/01/21 06:49:19;;;;;;;3.50;1.27;;;0.10;1.00;;;;;;5091003;28;20175;-58
2022/01/21 06:51:44;;;;;;;1.07;0.97;;;0.00;1.00;;;;;;5070778;28;20202;-58
2022/01/21 06:54:10;;;;;;;4.80;1.10;;;0.00;1.00;;;;;;5070570;28;20267;-59
2022/01/21 06:56:36;;;;;;;3.43;0.90;;;0.00;1.00;;;;;;5070371;28;20190;-59
2022/01/21 06:59:03;;;;;;;1.40;0.77;;;0.10;1.00;;;;;;5071414;28;20181;-59
2022/01/21 07:01:28;;;;;;;3.93;1.50;;;0.00;1.00;;;;;;5077946;28;20259;-59
2022/01/21 07:03:54;;;;;;;2.00;1.40;;;0.10;1.00;;;;;;5070142;28;20544;-59
2022/01/21 07:06:20;;;;;;;8.27;1.80;;;0.10;1.00;;;;;;5070190;28;20525;-59
2022/01/21 07:08:46;;;;;;;2.60;1.30;;;0.10;1.00;;;;;;5055252;28;20610;-59
2022/01/21 07:11:11;;;;;;;1.47;0.70;;;0.10;1.00;;;;;;5072278;28;20580;-59
2022/01/21 07:13:37;;;;;;;8.03;1.63;;;0.00;1.00;;;;;;5070124;28;20171;-59
2022/01/21 07:16:02;;;;;;;7.77;1.53;;;0.00;1.00;;;;;;5071371;28;20180;-58
2022/01/21 07:18:28;;;;;;;2.90;1.07;;;0.10;1.00;;;;;;5069842;28;20191;-59
2022/01/21 07:20:55;;;;;;;6.50;1.27;;;0.10;1.00;;;;;;5069795;28;20667;-59
2022/01/21 07:23:21;;;;;;;4.07;1.50;;;0.10;1.00;;;;;;5069316;28;20179;-59
2022/01/21 07:25:46;;;;;;;4.23;1.53;;;0.20;1.00;;;;;;5070942;28;20788;-58
2022/01/21 07:28:12;;;;;;;6.80;1.33;;;0.20;1.00;;;;;;5071006;28;20206;-59
2022/01/21 07:30:37;;;;;;;2.93;1.70;;;0.20;1.00;;;;;;5069986;28;20176;-58
2022/01/21 07:33:03;;;;;;;3.33;1.10;;;0.10;1.00;;;;;;5069453;28;20182;-59
2022/01/21 07:35:29;;;;;;;5.13;1.60;;;0.10;1.00;;;;;;5069654;28;20183;-59
2022/01/21 07:37:54;;;;;;;2.03;1.07;;;0.30;1.00;;;;;;5069538;28;20194;-59
2022/01/21 07:40:20;;;;;;;3.80;1.17;;;0.30;1.00;;;;;;5069562;28;20184;-59
2022/01/21 07:42:45;;;;;;;3.40;1.20;;;0.40;1.00;;;;;;5069732;28;20199;-59
2022/01/21 07:45:11;;;;;;;3.57;1.33;;;0.30;1.00;;;;;;5069644;28;20183;-59
2022/01/21 07:47:36;;;;;;;5.27;2.00;;;0.30;1.00;;;;;;5069706;28;20203;-58
2022/01/21 07:50:03;;;;;;;3.27;0.83;;;0.60;1.00;;;;;;5069762;28;20207;-59
2022/01/21 07:52:28;;;;;;;3.30;1.10;;;0.50;1.00;;;;;;5069594;28;20187;-59
2022/01/21 07:54:54;;;;;;;9.87;2.07;;;0.60;1.00;;;;;;5082301;28;20441;-59
2022/01/21 07:57:20;;;;;;;2.47;1.33;;;;;;;;;;5089668;28;20179;-59
2022/01/21 07:59:46;;;;;;;6.73;1.47;;;0.50;1.00;;;;;;5089746;28;20194;-59
2022/01/21 08:02:11;;;;;;;10.43;1.60;;;0.50;1.00;;;;;;5089361;28;20433;-58
2022/01/21 08:04:37;;;;;;;4.37;1.43;;;0.50;1.00;;;;;;5075840;28;20176;-59
2022/01/21 08:07:03;;;;;;;3.90;1.57;;;0.50;1.00;;;;;;5068894;28;20286;-59
2022/01/21 08:09:28;;;;;;;12.20;2.17;;;0.60;1.00;;;;;;5075613;28;20278;-59
2022/01/21 08:11:55;;;;;;;4.73;1.53;;;0.50;1.00;;;;;;5071449;28;20495;-58
2022/01/21 08:14:23;;;;;;;9.67;2.17;;;0.60;1.00;;;;;;5069236;28;20186;-59
2022/01/21 08:16:50;;;;;;;4.90;1.40;;;0.50;1.00;;;;;;5062797;28;20445;-58
2022/01/21 08:19:15;;;;;;;4.30;2.40;;;0.60;1.00;;;;;;5073247;28;20445;-58
2022/01/21 08:21:42;;;;;;;12.67;2.53;;;0.70;1.00;;;;;;5080498;28;20433;-59
2022/01/21 08:24:09;;;;;;;4.27;2.30;;;;;;;;;;5080905;28;20191;-59
2022/01/21 08:26:36;;;;;;;4.33;1.83;;;0.70;1.00;;;;;;5056910;28;20441;-59
2022/01/21 08:29:03;;;;;;;5.27;2.13;;;0.80;1.00;;;;;;5073540;28;20438;-59
2022/01/21 08:31:29;;;;;;;11.40;2.10;;;1.00;1.00;;;;;;5091542;28;20429;-59
2022/01/21 08:33:55;;;;;;;3.90;1.67;;;;;;;;;;5080731;28;20437;-59
2022/01/21 08:36:25;;;;;;;4.33;1.87;;;1.20;1.00;;;;;;5074374;28;20436;-58
2022/01/21 08:38:51;;;;;;;5.03;2.17;;;;;;;;;;5075212;28;20487;-58
2022/01/21 08:41:17;;;;;;;4.13;1.50;;;1.40;1.00;;;;;;5073743;28;20444;-58
2022/01/21 08:43:43;;;;;;;5.90;1.73;;;1.50;1.00;;;;;;5074138;28;20779;-58
2022/01/21 08:46:09;;;;;;;10.63;2.67;;;1.50;1.00;;;;;;5072881;28;20449;-58
2022/01/21 08:48:35;;;;;;;6.87;1.80;;;1.50;1.00;;;;;;5059625;28;20465;-59
2022/01/21 08:51:07;;;;;;;5.10;1.70;;;1.60;1.00;;;;;;5073793;28;20977;-59
2022/01/21 08:53:36;;;;;;;4.80;1.97;;;1.60;1.00;;;;;;5084040;28;20174;-59
2022/01/21 08:56:04;;;;;;;6.33;2.80;;;1.70;1.00;;;;;;5071700;28;20476;-59
2022/01/21 08:58:30;;;;;;;4.03;2.50;;;1.80;1.00;;;;;;5073648;28;21982;-59
2022/01/21 09:00:56;;;;;;;4.93;2.20;;;1.90;1.00;;;;;;5085434;28;20448;-58
2022/01/21 09:03:21;;;;;;;9.53;3.40;;;1.90;1.00;;;;;;5086533;28;20443;-58
2022/01/21 09:05:51;;;;;;;4.50;1.93;;;2.10;1.00;;;;;;5078681;28;20183;-59
2022/01/21 09:08:17;;;;;;;9.80;2.73;;;2.10;1.00;;;;;;5082211;28;20236;-59
2022/01/21 09:10:43;;;;;;;9.90;3.23;;;2.30;1.00;;;;;;5073648;28;21032;-58
2022/01/21 09:13:09;;;;;;;8.80;2.60;;;2.20;1.00;;;;;;5077360;28;20534;-59
2022/01/21 09:15:36;;;;;;;5.00;1.80;;;2.10;1.00;;;;;;5073694;28;20250;-59
2022/01/21 09:18:04;;;;;;;9.03;2.90;;;2.10;1.00;;;;;;5076661;28;20195;-58
2022/01/21 09:20:35;;;;;;;5.03;2.60;;;2.10;1.00;;;;;;5081970;28;20457;-58
2022/01/21 09:23:00;;;;;;;7.27;2.70;;;2.10;1.00;;;;;;5076162;28;20430;-58
2022/01/21 09:25:26;;;;;;;10.93;2.80;;;;;;;;;;5080891;28;21256;-59
2022/01/21 09:27:53;;;;;;;10.17;2.90;;;2.20;1.00;;;;;;5074579;28;20205;-58
2022/01/21 09:30:18;;;;;;;5.70;2.50;;;2.10;1.00;;;;;;5074876;28;20915;-58
2022/01/21 09:32:44;;;;;;;4.07;2.63;;;2.10;1.00;;;;;;5072898;28;20608;-58
2022/01/21 09:35:10;;;;;;;6.00;2.23;;;;;;;;;;5074297;28;20580;-59
2022/01/21 09:37:37;;;;;;;5.33;2.53;;;2.10;1.00;;;;;;5082750;28;20184;-59
2022/01/21 09:40:05;;;;;;;3.80;2.50;;;2.20;1.00;;;;;;5081374;28;20781;-59
2022/01/21 09:42:35;;;;;;;7.33;2.47;;;2.30;1.00;;;;;;5078891;28;20516;-59
2022/01/21 09:45:07;;;;;;;7.93;3.60;;;2.30;1.00;;;;;;5078572;28;20438;-58
2022/01/21 09:47:43;;;;;;;6.17;3.00;;;2.40;1.00;;;;;;5092921;28;20464;-74
2022/01/21 09:50:10;;;;;;;9.57;2.80;;;2.50;1.00;;;;;;5092349;28;20440;-74
2022/01/21 09:52:37;;;;;;;8.07;2.30;;;;;;;;;;5084515;28;20438;-75
2022/01/21 09:55:04;;;;;;;7.87;2.57;;;2.60;1.00;;;;;;5086407;28;20510;-75
2022/01/21 09:57:31;;;;;;;9.07;2.90;;;2.60;1.00;;;;;;5062273;28;20446;-73
2022/01/21 09:59:58;;;;;;;6.23;2.33;;;2.60;1.00;;;;;;5065106;28;20504;-74
2022/01/21 10:02:27;;;;;;;4.83;2.00;;;2.50;1.00;;;;;;5069668;28;20457;-71
2022/01/21 10:04:55;;;;;;;11.40;3.00;;;2.50;1.00;;;;;;5088159;28;20805;-71
2022/01/21 10:07:22;;;;;;;7.73;2.70;;;2.40;1.00;;;;;;5076140;28;20474;-74
2022/01/21 10:09:49;;;;;;;4.40;2.73;;;2.40;1.00;;;;;;5075585;28;20443;-71
2022/01/21 10:12:16;;;;;;;6.10;2.60;;;2.40;1.00;;;;;;5055535;28;20447;-71
2022/01/21 10:14:43;;;;;;;13.07;2.70;;;2.40;1.00;;;;;;5073333;28;20493;-71
2022/01/21 10:17:10;;;;;;;11.60;3.43;;;2.50;1.00;;;;;;5081005;28;21043;-71
2022/01/21 10:19:39;;;;;;;6.40;2.90;;;2.40;1.00;;;;;;5080884;28;20529;-71
2022/01/21 10:22:12;;;;;;;9.77;2.30;;;2.30;1.00;;;;;;5073182;28;20454;-71
2022/01/21 10:24:59;;;;;;;5.93;3.60;;;2.30;1.00;;;;;;5087157;28;20550;-70
2022/01/21 10:27:38;;;;;;;9.57;3.27;;;2.20;1.00;;;;;;5082999;28;20472;-71
2022/01/21 10:30:18;;;;;;;6.77;3.20;;;;;;;;;;5078344;28;20448;-69
2022/01/21 10:32:44;;;;;;;13.83;3.73;;;;;;;;;;5073491;28;20441;-72
2022/01/21 10:35:22;;;;;;;13.33;5.50;;;2.20;1.00;;;;;;5077320;28;20445;-72
2022/01/21 10:37:48;;;;;;;8.93;3.60;;;2.10;1.00;;;;;;5058247;28;20473;-73
2022/01/21 10:40:15;;;;;;;6.30;2.80;;;2.00;1.00;;;;;;5082305;28;20432;-72
2022/01/21 10:42:41;;;;;;;7.53;3.30;;;;;;;;;;5080277;28;20443;-72
2022/01/21 10:45:08;;;;;;;7.07;3.67;;;1.90;1.00;;;;;;5071306;28;20444;-72
2022/01/21 10:47:37;;;;;;;15.43;4.50;;;1.90;1.00;;;;;;5075701;28;20958;-74
2022/01/21 10:50:11;;;;;;;11.00;4.77;;;2.00;1.00;;;;;;5086372;28;20440;-74
2022/01/21 10:52:36;;;;;;;6.40;3.70;;;2.10;1.00;;;;;;5089852;28;20583;-72
2022/01/21 10:55:06;;;;;;;9.73;3.97;;;2.10;1.00;;;;;;5082730;28;20882;-73
2022/01/21 10:57:32;;;;;;;13.27;5.03;;;2.20;1.00;;;;;;5077470;28;20269;-73
2022/01/21 10:59:59;;;;;;;7.33;4.17;;;2.30;1.00;;;;;;5071617;28;20444;-72
2022/01/21 11:02:29;;;;;;;6.53;3.80;;;;;;;;;;5071201;28;20451;-72
2022/01/21 11:04:56;;;;;;;7.20;2.97;;;2.10;1.00;;;;;;5084303;28;20437;-73
2022/01/21 11:07:54;;;;;;;10.40;4.50;;;2.20;1.00;;;;;;5079537;28;20580;-69
2022/01/21 11:10:43;;;;;;;14.83;4.90;;;2.20;1.00;;;;;;5074629;28;20429;-70
2022/01/21 11:13:11;;;;;;;6.87;4.13;;;2.30;1.00;;;;;;5075130;28;20431;-72
2022/01/21 11:15:42;;;;;;;10.60;4.53;;;2.50;1.00;;;;;;5089162;28;20435;-72
2022/01/21 11:18:10;;;;;;;7.07;3.70;;;2.60;1.00;;;;;;5085780;28;20516;-71
2022/01/21 11:20:40;;;;;;;14.53;4.83;;;2.60;1.00;;;;;;5072170;28;20511;-75
2022/01/21 11:23:08;;;;;;;15.07;4.60;;;2.80;1.00;;;;;;5075204;28;20425;-74
2022/01/21 11:25:41;;;;;;;10.33;3.57;;;2.70;1.00;;;;;;5058634;28;20560;-71
2022/01/21 11:28:08;;;;;;;12.33;4.07;;;2.80;1.00;;;;;;5051562;28;20473;-71
2022/01/21 11:30:33;;;;;;;7.43;4.43;;;2.90;1.00;;;;;;5058931;28;20453;-72
2022/01/21 11:32:59;;;;;;;11.50;4.63;;;2.90;1.00;;;;;;5062155;28;20442;-72
2022/01/21 11:35:28;;;;;;;10.83;4.70;;;2.90;1.00;;;;;;5060527;28;20229;-74
2022/01/21 11:37:54;;;;;;;14.17;4.97;;;;;;;;;;5054365;28;20587;-73
2022/01/21 11:40:21;;;;;;;9.70;4.10;;;3.10;1.00;;;;;;5097648;28;20444;-73
2022/01/21 11:42:49;;;;;;;11.00;5.53;;;3.20;1.00;;;;;;5063171;28;20455;-69
2022/01/21 11:46:19;;;;;;;8.83;4.37;;;3.10;1.00;;;;;;5100586;28;20562;-71
2022/01/21 11:50:42;;;;;;;10.53;3.40;;;3.20;1.00;;;;;;5049818;28;21008;-69
2022/01/21 11:53:08;;;;;;;11.13;4.77;;;3.40;1.00;;;;;;5049499;28;20526;-72
2022/01/21 11:55:37;;;;;;;5.70;4.13;;;3.50;1.00;;;;;;5062212;28;20533;-73
2022/01/21 11:58:29;;;;;;;9.93;3.67;;;3.50;1.00;;;;;;5048620;28;20646;-56
2022/01/21 12:00:54;;;;;;;8.27;3.80;;;3.40;1.00;;;;;;5064159;28;20479;-68
2022/01/21 12:03:23;;;;;;;9.20;4.53;;;3.20;1.00;;;;;;5069137;28;20870;-69
2022/01/21 12:05:50;;;;;;;11.33;4.90;;;3.20;1.00;;;;;;5069527;28;20210;-70
2022/01/21 12:08:47;;;;;;;7.40;3.63;;;3.20;1.00;;;;;;5069132;28;20838;-71
2022/01/21 12:11:34;;;;;;;6.27;3.70;;;3.20;1.00;;;;;;5067061;28;20918;-70
2022/01/21 12:14:03;;;;;;;9.87;4.57;;;;;;;;;;5049359;28;20523;-69
2022/01/21 12:16:50;;;;;;;12.53;5.40;;;3.30;1.00;;;;;;5049205;28;20477;-70
2022/01/21 12:19:27;;;;;;;11.73;4.20;;;3.30;1.00;;;;;;5049159;28;20436;-70
2022/01/21 12:21:54;;;;;;;10.17;3.80;;;3.40;1.00;;;;;;5090104;28;20995;-71
2022/01/21 12:24:51;;;;;;;9.20;4.37;;;3.20;1.00;;;;;;5051105;28;20446;-70
2022/01/21 12:27:19;;;;;;;12.23;4.50;;;3.20;1.00;;;;;;5068867;28;20474;-71
2022/01/21 12:29:45;;;;;;;10.23;4.47;;;3.20;1.00;;;;;;5069027;28;20449;-69
2022/01/21 12:32:21;;;;;;;9.50;3.70;;;3.20;1.00;;;;;;5071547;28;20438;-69
2022/01/21 12:35:02;;;;;;;5.70;3.10;;;3.40;1.00;;;;;;5067785;28;20415;-70
2022/01/21 12:40:33;;;;;;;7.57;2.87;;;3.40;1.00;;;;;;5071037;28;20471;-67
2022/01/21 12:42:58;;;;;;;6.30;3.07;;;3.60;1.00;;;;;;5069038;28;20711;-68
2022/01/21 12:45:25;;;;;;;4.57;2.50;;;3.70;1.00;;;;;;5068882;28;20540;-69
2022/01/21 12:47:51;;;;;;;7.97;2.37;;;;;;;;;;5068595;28;20196;-69
2022/01/21 12:50:30;;;;;;;6.33;3.20;;;3.70;1.00;;;;;;5069127;28;20450;-68
2022/01/21 12:53:15;;;;;;;7.23;2.80;;;3.70;1.00;;;;;;5058139;28;20495;-69
2022/01/21 12:56:02;;;;;;;8.60;2.67;;;3.50;1.00;;;;;;5086439;28;20434;-69
2022/01/21 12:58:48;;;;;;;6.63;2.20;;;3.40;1.00;;;;;;5066128;28;20822;-69
2022/01/21 13:01:15;;;;;;;6.37;2.73;;;3.40;1.00;;;;;;5070075;28;20849;-68
2022/01/21 13:03:50;;;;;;;6.77;2.07;;;3.40;1.00;;;;;;5065729;28;20445;-69
2022/01/21 13:06:19;;;;;;;2.93;2.60;;;3.30;1.00;;;;;;5072083;28;20519;-69
2022/01/21 13:08:50;;;;;;;6.80;2.50;;;3.10;1.00;;;;;;5071616;28;20470;-68
2022/01/21 13:11:23;;;;;;;11.77;2.33;;;3.20;1.00;;;;;;5072884;28;20543;-69
2022/01/21 13:13:51;;;;;;;6.00;2.03;;;3.40;1.00;;;;;;5072027;28;20472;-69
2022/01/21 13:16:30;;;;;;;3.03;1.53;;;3.40;1.00;;;;;;5071593;28;20473;-70
2022/01/21 13:19:03;;;;;;;7.03;2.20;;;3.60;1.00;;;;;;5073506;28;20435;-72
2022/01/21 13:21:29;;;;;;;5.40;1.90;;;;;;;;;;5070816;28;20831;-54
2022/01/21 13:23:58;;;;;;;3.30;1.73;;;3.50;1.00;;;;;;5071535;28;20441;-73
2022/01/21 13:26:31;;;;;;;5.27;2.00;;;3.60;1.00;;;;;;5077750;28;20568;-75
2022/01/21 13:29:12;;;;;;;6.93;1.90;;;3.60;1.00;;;;;;5078035;28;20451;-75
2022/01/21 13:31:47;;;;;;;6.03;2.10;;;3.70;1.00;;;;;;5080269;28;20801;-73
2022/01/21 13:34:19;;;;;;;1.80;1.37;;;3.60;1.00;;;;;;5081099;28;20452;-73
2022/01/21 13:36:54;;;;;;;5.57;1.80;;;3.70;1.00;;;;;;5086750;28;20450;-72
2022/01/21 13:39:21;;;;;;;3.40;2.03;;;3.50;1.00;;;;;;5080680;28;21824;-74
2022/01/21 13:41:54;;;;;;;3.93;1.67;;;3.40;1.00;;;;;;5076965;28;20437;-76
2022/01/21 13:44:56;;;;;;;23.43;3.07;;;3.30;1.00;;;;;;5058402;28;20416;-76
2022/01/21 13:47:28;;;;;;;2.90;1.97;;;3.30;1.00;;;;;;5065136;28;20448;-76
2022/01/21 13:50:00;;;;;;;5.20;1.37;;;3.30;1.00;;;;;;5081248;28;20436;-80
2022/01/21 13:52:48;;;;;;;3.30;1.30;;;3.30;1.00;;;;;;5084357;28;20435;-75
2022/01/21 13:55:39;;;;;;;4.07;1.67;;;3.30;1.00;;;;;;5081266;28;20529;-75
2022/01/21 13:58:09;;;;;;;4.37;1.90;;;3.30;1.00;;;;;;5074223;28;20477;-76
2022/01/21 14:00:44;;;;;;;6.90;1.90;;;3.30;1.00;;;;;;5090804;28;20739;-76
2022/01/21 14:03:22;;;;;;;4.30;1.73;;;3.40;1.00;;;;;;5076852;28;20430;-75
2022/01/21 14:05:48;;;;;;;5.23;1.93;;;;;;;;;;5074015;28;20512;-76
2022/01/21 14:08:18;;;;;;;5.83;1.50;;;3.30;1.00;;;;;;5078389;28;20543;-75
2022/01/21 14:10:45;;;;;;;4.70;1.37;;;3.40;1.00;;;;;;5080221;28;20435;-76
2022/01/21 14:13:11;;;;;;;4.50;2.17;;;3.40;1.00;;;;;;5081887;28;20867;-76
2022/01/21 14:15:37;;;;;;;3.43;1.20;;;3.40;1.00;;;;;;5079085;28;20882;-76
2022/01/21 14:18:03;;;;;;;2.63;1.60;;;3.40;1.00;;;;;;5063532;28;20523;-76
2022/01/21 14:20:31;;;;;;;3.47;1.50;;;3.40;1.00;;;;;;5081368;28;20189;-76
2022/01/21 14:22:57;;;;;;;3.70;1.40;;;3.50;1.00;;;;;;5078435;28;20498;-76
2022/01/21 14:25:23;;;;;;;2.40;1.13;;;3.30;1.00;;;;;;5072564;28;21152;-76